Chillicothe, Illinois
Current Conditions -  °F | °C
As of 2:15 AM on Saturday 25 Oct 2014 (Local Time) from KC75 Reporting Station
Scattered Clouds Scattered Clouds  
Wind Chill: 58°   Ceiling: Unl
Heat Index: 58°   Visibility: 10mi
Dew Point: 50°   Wind: 6mph
Humidity: 74%   Direction: 240°WSW
Pressure: 29.93"   Gusts: NA
Location:  40.92°N, 89.49°W
Report Text: KC75 250715Z AUTO 24005KT 10SM SCT017 SCT024 15/10 A2993 RMK AO2 T01470101
Loading
Personal Weather Stations






























Interactive Weather Map
Tropical Storm Tracking
New forecast layout! Learn more

10-Day Weather Forecast

Advertisements
Track Severe Weather on mobile